Terminal Aerodrome Forecast
Issued by NWS Cleveland, OH

Home | Current Version | Previous Version | Graphics & Text | Print | Product List | Glossary On
Versions: 1 2 3 4 5 6 7 8 9 10 11 12 13 14 15 16 17 18
136
FTUS41 KCLE 281130
TAFMFD
TAF
KMFD 281130Z 2812/2912 24003KT P6SM BKN200
      TEMPO 2812/2813 3SM BR SCT005
     FM281500 24005KT P6SM SCT030 BKN200
     FM282000 26005KT P6SM VCTS SCT040CB BKN120
     FM290100 36004KT P6SM SCT040 BKN120
     FM290600 36003KT 4SM BR SCT040=

USA.gov is the U.S. government's official web portal to all federal, state and local government web resources and services.